createdAt,value
2023-02-01T00:01:56.559Z,76.86
2023-02-01T00:04:23.856Z,76.63
2023-02-01T00:06:50.810Z,76.87
2023-02-01T00:09:17.631Z,76.30
2023-02-01T00:11:45.674Z,76.61
2023-02-01T00:14:12.593Z,76.49
2023-02-01T00:16:39.747Z,76.27
2023-02-01T00:19:11.672Z,76.25
2023-02-01T00:21:42.481Z,76.65
2023-02-01T00:24:11.280Z,76.10
2023-02-01T00:29:35.143Z,75.71
2023-02-01T00:32:03.144Z,75.31
2023-02-01T00:34:29.979Z,75.47
2023-02-01T00:36:57.947Z,75.14
2023-02-01T00:39:25.895Z,75.04
2023-02-01T00:41:52.750Z,74.21
2023-02-01T00:44:24.059Z,74.04
2023-02-01T00:46:52.563Z,74.46
2023-02-01T00:49:20.876Z,74.06
2023-02-01T00:51:48.391Z,74.19
2023-02-01T00:54:15.523Z,74.18
2023-02-01T00:56:42.812Z,73.96
2023-02-01T00:59:13.685Z,73.90
2023-02-01T01:01:40.938Z,73.97
2023-02-01T01:04:08.885Z,73.22
2023-02-01T01:06:36.238Z,73.85
2023-02-01T01:09:07.272Z,73.87
2023-02-01T01:11:38.559Z,73.92
2023-02-01T01:14:08.564Z,73.90
2023-02-01T01:16:36.394Z,74.09
2023-02-01T01:19:05.396Z,73.74
2023-02-01T01:21:32.388Z,73.72
2023-02-01T01:24:01.940Z,73.62
2023-02-01T01:26:30.582Z,73.53
2023-02-01T01:29:23.536Z,73.44
2023-02-01T01:31:50.577Z,73.43
2023-02-01T01:37:10.440Z,74.02
2023-02-01T01:39:38.861Z,73.36
2023-02-01T01:45:20.633Z,74.04
2023-02-01T01:47:53.181Z,74.78
2023-02-01T01:50:53.628Z,74.20
2023-02-01T01:53:27.740Z,74.85
2023-02-01T01:55:57.512Z,74.65
2023-02-01T01:58:28.122Z,74.54
2023-02-01T02:00:55.717Z,74.78
2023-02-01T02:03:22.550Z,74.57
2023-02-01T02:05:52.128Z,74.59
2023-02-01T02:08:21.190Z,74.63
2023-02-01T02:10:52.429Z,75.02
2023-02-01T02:13:21.481Z,74.59
2023-02-01T02:16:10.017Z,75.24
2023-02-01T02:19:07.550Z,74.70
2023-02-01T02:22:13.925Z,75.20
2023-02-01T02:28:06.154Z,76.00
2023-02-01T02:30:49.032Z,76.09
2023-02-01T02:33:43.540Z,75.82
2023-02-01T02:36:28.715Z,76.04
2023-02-01T02:39:09.484Z,75.88
2023-02-01T02:42:00.116Z,75.96
2023-02-01T02:44:38.416Z,76.04
2023-02-01T02:47:22.938Z,76.45
2023-02-01T02:50:19.578Z,76.63
2023-02-01T02:52:53.425Z,77.22
2023-02-01T02:55:26.516Z,77.13
2023-02-01T02:57:56.066Z,76.88
2023-02-01T03:00:30.930Z,77.35
2023-02-01T03:02:58.524Z,77.35
2023-02-01T03:05:25.712Z,77.75
2023-02-01T03:08:12.377Z,77.69
2023-02-01T03:10:46.695Z,76.73
2023-02-01T03:13:29.108Z,77.37
2023-02-01T03:16:05.820Z,77.04
2023-02-01T03:19:08.393Z,76.79
2023-02-01T03:22:12.056Z,77.16
2023-02-01T03:24:51.460Z,76.72
2023-02-01T03:27:23.840Z,76.92
2023-02-01T03:30:18.255Z,77.64
2023-02-01T03:32:49.518Z,77.23
2023-02-01T03:35:20.339Z,76.86
2023-02-01T03:37:49.380Z,76.61
2023-02-01T03:40:18.847Z,76.77
2023-02-01T03:42:54.173Z,76.57
2023-02-01T03:45:29.926Z,76.70
2023-02-01T03:48:02.137Z,76.80
2023-02-01T03:50:32.435Z,76.45
2023-02-01T03:53:08.629Z,75.10
2023-02-01T03:55:37.969Z,75.58
2023-02-01T03:58:15.496Z,76.20
2023-02-01T04:00:54.350Z,75.47
2023-02-01T04:03:26.273Z,75.39
2023-02-01T04:05:54.323Z,75.85
2023-02-01T04:08:26.571Z,75.60
2023-02-01T04:10:53.498Z,75.15
2023-02-01T04:13:20.231Z,75.02
2023-02-01T04:15:48.925Z,75.27
2023-02-01T04:18:15.726Z,76.16
2023-02-01T04:20:43.865Z,75.58
2023-02-01T04:23:11.386Z,75.51
2023-02-01T04:25:38.256Z,75.64
2023-02-01T04:30:58.461Z,75.74
2023-02-01T04:33:28.935Z,75.94
2023-02-01T04:35:55.802Z,76.56
2023-02-01T04:38:23.647Z,76.37
2023-02-01T04:41:16.745Z,76.46
2023-02-01T04:44:18.537Z,76.44
2023-02-01T04:46:47.132Z,76.38
2023-02-01T04:49:16.439Z,76.69
2023-02-01T04:51:44.560Z,76.49
2023-02-01T04:54:11.406Z,76.15
2023-02-01T04:56:39.182Z,76.05
2023-02-01T04:59:07.088Z,76.46
2023-02-01T05:01:34.892Z,76.50
2023-02-01T05:04:05.386Z,76.19
2023-02-01T05:06:35.956Z,76.49
2023-02-01T05:09:02.914Z,76.38
2023-02-01T05:11:31.727Z,76.40
2023-02-01T05:14:00.932Z,75.87
2023-02-01T05:16:31.134Z,76.69
2023-02-01T05:18:58.302Z,76.19
2023-02-01T05:21:27.012Z,76.83
2023-02-01T05:23:53.780Z,77.07
2023-02-01T05:26:21.532Z,77.26
2023-02-01T05:28:48.351Z,78.18
2023-02-01T05:31:16.580Z,76.83
2023-02-01T05:33:43.851Z,77.55
2023-02-01T05:36:10.792Z,77.90
2023-02-01T05:38:37.522Z,78.37
2023-02-01T05:41:05.473Z,79.00
2023-02-01T05:43:32.266Z,79.83
2023-02-01T05:45:59.533Z,78.50
2023-02-01T05:48:51.261Z,77.91
2023-02-01T05:51:43.735Z,77.82
2023-02-01T05:54:35.509Z,77.04
2023-02-01T05:57:02.395Z,76.90
2023-02-01T05:59:29.204Z,76.70
2023-02-01T06:01:58.435Z,77.03
2023-02-01T06:04:25.340Z,76.55
2023-02-01T06:06:52.840Z,76.15
2023-02-01T06:09:23.636Z,76.34
2023-02-01T06:11:50.897Z,75.68
2023-02-01T06:14:17.989Z,75.82
2023-02-01T06:16:46.457Z,75.84
2023-02-01T06:19:14.628Z,75.98
2023-02-01T06:22:07.496Z,76.48
2023-02-01T06:24:34.881Z,75.97
2023-02-01T06:27:01.662Z,76.15
2023-02-01T06:29:29.528Z,76.02
2023-02-01T06:31:56.484Z,75.59
2023-02-01T06:34:23.349Z,75.69
2023-02-01T06:36:51.506Z,75.05
2023-02-01T06:39:18.563Z,74.88
2023-02-01T06:41:49.442Z,75.09
2023-02-01T06:44:17.456Z,75.02
2023-02-01T06:46:44.828Z,74.62
2023-02-01T06:49:11.675Z,75.90
2023-02-01T06:51:40.391Z,75.76
2023-02-01T06:54:11.014Z,76.28
2023-02-01T06:56:38.884Z,75.76
2023-02-01T06:59:09.571Z,75.44
2023-02-01T07:01:37.144Z,76.46
2023-02-01T07:04:04.048Z,77.21
2023-02-01T07:06:31.480Z,77.14
2023-02-01T07:11:53.876Z,77.30
2023-02-01T07:14:20.688Z,76.68
2023-02-01T07:16:47.966Z,76.74
2023-02-01T07:19:18.472Z,76.12
2023-02-01T07:21:45.951Z,76.61
2023-02-01T07:24:15.857Z,76.89
2023-02-01T07:26:46.520Z,75.82
2023-02-01T07:29:15.066Z,75.37
2023-02-01T07:31:41.855Z,75.86
2023-02-01T07:34:13.458Z,75.67
2023-02-01T07:36:40.242Z,75.89
2023-02-01T07:39:07.105Z,74.61
2023-02-01T07:44:32.460Z,74.54
2023-02-01T07:47:01.056Z,74.21
2023-02-01T07:49:27.857Z,74.04
2023-02-01T07:51:55.511Z,74.37
2023-02-01T07:54:22.260Z,73.67
2023-02-01T07:56:49.368Z,74.11
2023-02-01T07:59:16.500Z,74.84
2023-02-01T08:01:43.799Z,74.36
2023-02-01T08:04:12.768Z,74.87
2023-02-01T08:06:40.879Z,74.30
2023-02-01T08:09:08.708Z,74.43
2023-02-01T08:11:35.707Z,74.79
2023-02-01T08:14:04.153Z,75.16
2023-02-01T08:16:31.602Z,74.95
2023-02-01T08:19:24.470Z,74.97
2023-02-01T08:21:51.834Z,74.92
2023-02-01T08:24:18.610Z,74.38
2023-02-01T08:26:49.452Z,74.34
2023-02-01T08:29:16.474Z,73.89
2023-02-01T08:31:45.187Z,73.99
2023-02-01T08:34:15.931Z,72.94
2023-02-01T08:36:43.443Z,72.42
2023-02-01T08:39:12.166Z,71.93
2023-02-01T08:42:06.480Z,71.55
2023-02-01T08:44:58.323Z,72.11
2023-02-01T08:47:51.997Z,70.50
2023-02-01T08:50:20.462Z,70.15
2023-02-01T08:52:48.191Z,69.82
2023-02-01T08:55:17.528Z,69.82
2023-02-01T08:57:45.075Z,69.86
2023-02-01T09:00:15.716Z,70.26
2023-02-01T09:02:43.466Z,70.23
2023-02-01T09:05:11.071Z,70.58
2023-02-01T09:07:39.547Z,70.43
2023-02-01T09:10:07.277Z,69.97
2023-02-01T09:12:34.903Z,70.96
2023-02-01T09:15:04.126Z,71.22
2023-02-01T09:17:31.275Z,71.66
2023-02-01T09:19:59.826Z,72.33
2023-02-01T09:25:20.660Z,72.36
2023-02-01T09:27:47.806Z,72.61
2023-02-01T09:30:15.073Z,72.13
2023-02-01T09:33:11.439Z,72.64
2023-02-01T09:35:38.203Z,73.24
2023-02-01T09:38:06.096Z,74.01
2023-02-01T09:40:35.508Z,73.27
2023-02-01T09:43:14.727Z,72.73
2023-02-01T09:46:32.327Z,73.14
2023-02-01T09:49:05.605Z,73.36
2023-02-01T09:51:39.877Z,73.60
2023-02-01T09:54:15.598Z,75.33
2023-02-01T09:57:04.347Z,76.45
2023-02-01T09:59:44.536Z,76.80
2023-02-01T10:02:24.269Z,76.06
2023-02-01T10:05:05.498Z,76.05
2023-02-01T10:07:52.845Z,75.93
2023-02-01T10:10:29.603Z,76.89
2023-02-01T10:13:39.315Z,77.74
2023-02-01T10:16:41.247Z,76.88
2023-02-01T10:19:23.276Z,77.07
2023-02-01T10:23:04.930Z,77.32
2023-02-01T10:25:37.987Z,75.92
2023-02-01T10:28:05.973Z,75.73
2023-02-01T10:33:57.531Z,75.17
2023-02-01T10:36:33.898Z,74.58
2023-02-01T10:39:01.509Z,74.73
2023-02-01T10:41:40.187Z,74.30
2023-02-01T10:44:37.283Z,75.06
2023-02-01T10:47:04.252Z,76.82
2023-02-01T10:50:00.488Z,74.94
2023-02-01T10:52:42.821Z,75.92
2023-02-01T10:55:42.437Z,76.20
2023-02-01T10:58:28.501Z,78.37
2023-02-01T11:01:01.238Z,80.21
2023-02-01T11:03:34.456Z,81.09
2023-02-01T11:06:11.287Z,82.40
2023-02-01T11:08:51.479Z,83.25
2023-02-01T11:11:21.640Z,82.43
2023-02-01T11:14:15.317Z,82.90
2023-02-01T11:16:49.653Z,83.03
2023-02-01T11:19:58.194Z,83.00
2023-02-01T11:22:27.465Z,81.06
2023-02-01T11:24:55.035Z,82.08
2023-02-01T11:27:27.506Z,80.64
2023-02-01T11:30:00.745Z,81.54
2023-02-01T11:32:29.304Z,81.40
2023-02-01T11:35:02.797Z,82.64
2023-02-01T11:37:42.381Z,83.12
2023-02-01T11:40:18.440Z,84.61
2023-02-01T11:43:17.494Z,85.61
2023-02-01T11:46:01.865Z,86.93
2023-02-01T11:48:32.624Z,87.71
2023-02-01T11:51:09.812Z,88.34
2023-02-01T11:54:09.310Z,88.31
2023-02-01T11:57:08.763Z,90.45
2023-02-01T11:59:56.345Z,91.33
2023-02-01T12:02:24.619Z,90.47
2023-02-01T12:05:01.738Z,90.07
2023-02-01T12:07:31.571Z,89.43
2023-02-01T12:09:58.335Z,88.25
2023-02-01T12:12:45.516Z,87.93
2023-02-01T12:15:21.660Z,88.78
2023-02-01T12:18:00.470Z,88.67
2023-02-01T12:20:39.267Z,88.14
2023-02-01T12:23:43.576Z,89.13
2023-02-01T12:26:38.256Z,89.19
2023-02-01T12:32:51.718Z,88.56
2023-02-01T12:35:33.676Z,87.92
2023-02-01T12:38:16.112Z,87.89
2023-02-01T12:41:10.421Z,88.32
2023-02-01T12:43:54.505Z,85.74
2023-02-01T12:46:32.237Z,85.46
2023-02-01T12:49:19.453Z,86.31
2023-02-01T12:51:50.653Z,86.09
2023-02-01T12:54:32.427Z,85.14
2023-02-01T12:57:06.006Z,85.07
2023-02-01T12:59:55.001Z,86.22
2023-02-01T13:02:29.189Z,83.86
2023-02-01T13:05:29.631Z,81.91
2023-02-01T13:07:59.436Z,82.21
2023-02-01T13:10:40.511Z,80.78
2023-02-01T13:13:18.177Z,78.85
2023-02-01T13:15:58.110Z,78.34
2023-02-01T13:18:33.420Z,76.79
2023-02-01T13:21:09.553Z,76.72
2023-02-01T13:23:39.497Z,76.86
2023-02-01T13:26:08.041Z,76.84
2023-02-01T13:28:48.727Z,77.72
2023-02-01T13:31:46.694Z,76.95
2023-02-01T13:34:38.728Z,77.55
2023-02-01T13:37:42.814Z,76.81
2023-02-01T13:40:38.024Z,77.03
2023-02-01T13:43:25.673Z,76.87
2023-02-01T13:45:56.604Z,76.91
2023-02-01T13:48:41.512Z,75.34
2023-02-01T13:51:14.572Z,75.45
2023-02-01T13:53:48.921Z,75.25
2023-02-01T13:59:44.528Z,75.30
2023-02-01T14:02:39.391Z,75.99
2023-02-01T14:05:11.472Z,76.02
2023-02-01T14:08:07.021Z,76.26
2023-02-01T14:10:50.505Z,74.90
2023-02-01T14:13:26.511Z,73.94
2023-02-01T14:16:03.325Z,73.20
2023-02-01T14:18:37.000Z,73.42
2023-02-01T14:21:24.559Z,73.84
2023-02-01T14:23:54.365Z,73.68
2023-02-01T14:26:40.490Z,73.56
2023-02-01T14:29:20.246Z,74.11
2023-02-01T14:31:49.612Z,75.13
2023-02-01T14:34:27.987Z,74.79
2023-02-01T14:37:05.500Z,74.44
2023-02-01T14:39:57.279Z,74.70
2023-02-01T14:42:37.500Z,74.49
2023-02-01T14:45:19.612Z,75.74
2023-02-01T14:48:12.660Z,75.78
2023-02-01T14:50:46.404Z,75.91
2023-02-01T14:53:22.566Z,75.75
2023-02-01T14:55:56.399Z,76.71
2023-02-01T14:58:36.521Z,77.02
2023-02-01T15:01:14.889Z,77.51
2023-02-01T15:03:44.983Z,77.66
2023-02-01T15:06:42.000Z,78.48
2023-02-01T15:09:13.496Z,78.22
2023-02-01T15:11:55.670Z,79.77
2023-02-01T15:14:25.476Z,79.62
2023-02-01T15:16:52.255Z,79.32
2023-02-01T15:19:19.530Z,79.02
2023-02-01T15:21:56.958Z,78.95
2023-02-01T15:27:49.567Z,76.91
2023-02-01T15:30:24.677Z,78.10
2023-02-01T15:33:19.959Z,76.94
2023-02-01T15:35:54.052Z,76.57
2023-02-01T15:38:28.828Z,76.22
2023-02-01T15:41:13.029Z,76.28
2023-02-01T15:43:56.063Z,75.04
2023-02-01T15:46:50.297Z,75.53
2023-02-01T15:49:38.492Z,75.25
2023-02-01T15:52:22.438Z,73.98
2023-02-01T15:54:59.936Z,74.37
2023-02-01T15:57:52.809Z,74.29
2023-02-01T16:00:28.715Z,73.60
2023-02-01T16:03:07.002Z,73.69
2023-02-01T16:08:36.678Z,73.21
2023-02-01T16:11:09.828Z,73.25
2023-02-01T16:13:37.240Z,73.25
2023-02-01T16:16:05.598Z,73.10
2023-02-01T16:18:32.373Z,73.48
2023-02-01T16:21:00.517Z,73.58
2023-02-01T16:23:31.541Z,73.20
2023-02-01T16:26:00.495Z,73.85
2023-02-01T16:28:27.999Z,72.97
2023-02-01T16:30:56.687Z,73.11
2023-02-01T16:33:26.000Z,73.57
2023-02-01T16:35:56.297Z,73.73
2023-02-01T16:38:28.516Z,73.52
2023-02-01T16:40:56.149Z,74.38
2023-02-01T16:43:25.322Z,74.16
2023-02-01T16:45:55.359Z,74.64
2023-02-01T16:48:27.887Z,74.39
2023-02-01T16:51:00.614Z,74.95
2023-02-01T16:53:34.484Z,75.51
2023-02-01T16:56:15.374Z,75.57
2023-02-01T16:58:45.509Z,75.43
2023-02-01T17:01:16.664Z,75.85
2023-02-01T17:03:45.021Z,75.64
2023-02-01T17:06:14.474Z,76.00
2023-02-01T17:08:45.725Z,75.32
2023-02-01T17:11:13.910Z,75.86
2023-02-01T17:13:42.326Z,76.40
2023-02-01T17:16:19.684Z,76.63
2023-02-01T17:19:22.218Z,77.73
2023-02-01T17:21:54.705Z,77.45
2023-02-01T17:24:46.628Z,78.67
2023-02-01T17:27:18.579Z,79.08
2023-02-01T17:29:46.788Z,79.32
2023-02-01T17:32:21.341Z,79.69
2023-02-01T17:34:49.773Z,79.60
2023-02-01T17:37:30.596Z,78.70
2023-02-01T17:39:59.349Z,78.45
2023-02-01T17:42:28.336Z,78.26
2023-02-01T17:47:55.895Z,77.64
2023-02-01T17:50:32.746Z,78.72
2023-02-01T17:56:18.389Z,77.67
2023-02-01T17:58:46.728Z,77.38
2023-02-01T18:01:23.182Z,77.28
2023-02-01T18:03:51.519Z,77.44
2023-02-01T18:06:21.851Z,76.75
2023-02-01T18:08:50.638Z,76.81
2023-02-01T18:11:23.227Z,76.25
2023-02-01T18:14:16.981Z,76.66
2023-02-01T18:16:44.531Z,75.70
2023-02-01T18:19:13.968Z,76.16
2023-02-01T18:21:43.268Z,75.30
2023-02-01T18:24:16.653Z,75.55
2023-02-01T18:26:45.759Z,74.62
2023-02-01T18:29:13.871Z,74.19
2023-02-01T18:31:48.120Z,73.89
2023-02-01T18:34:19.643Z,74.48
2023-02-01T18:36:47.820Z,73.09
2023-02-01T18:39:15.955Z,72.91
2023-02-01T18:41:46.436Z,72.86
2023-02-01T18:44:19.055Z,71.95
2023-02-01T18:46:48.819Z,72.42
2023-02-01T18:49:18.348Z,72.12
2023-02-01T18:51:47.662Z,72.01
2023-02-01T18:54:15.469Z,72.56
2023-02-01T18:56:44.009Z,73.28
2023-02-01T18:59:13.028Z,74.58
2023-02-01T19:01:41.025Z,77.02
2023-02-01T19:04:18.976Z,77.05
2023-02-01T19:06:50.717Z,76.85
2023-02-01T19:09:18.592Z,77.55
2023-02-01T19:11:46.301Z,78.29
2023-02-01T19:14:40.026Z,78.08
2023-02-01T19:17:07.493Z,78.48
2023-02-01T19:19:35.169Z,79.04
2023-02-01T19:22:03.059Z,80.36
2023-02-01T19:24:31.829Z,80.69
2023-02-01T19:27:00.902Z,81.45
2023-02-01T19:29:28.816Z,81.23
2023-02-01T19:31:56.703Z,81.07
2023-02-01T19:34:24.356Z,81.67
2023-02-01T19:36:53.973Z,80.69
2023-02-01T19:39:21.486Z,81.45
2023-02-01T19:41:49.895Z,81.23
2023-02-01T19:44:19.061Z,79.97
2023-02-01T19:46:49.131Z,79.61
2023-02-01T19:49:17.376Z,79.16
2023-02-01T19:51:46.096Z,78.81
2023-02-01T19:54:13.572Z,77.97
2023-02-01T19:56:43.684Z,76.73
2023-02-01T19:59:12.851Z,75.85
2023-02-01T20:01:40.080Z,75.00
2023-02-01T20:04:08.036Z,75.57
2023-02-01T20:06:40.632Z,74.90
2023-02-01T20:09:08.416Z,74.11
2023-02-01T20:11:36.159Z,74.00
2023-02-01T20:14:05.160Z,72.93
2023-02-01T20:16:32.563Z,73.13
2023-02-01T20:19:07.956Z,73.31
2023-02-01T20:22:00.597Z,73.55
2023-02-01T20:24:29.312Z,72.93
2023-02-01T20:26:57.941Z,73.34
2023-02-01T20:29:26.034Z,73.53
2023-02-01T20:31:54.141Z,72.58
2023-02-01T20:34:23.255Z,73.72
2023-02-01T20:36:50.647Z,73.79
2023-02-01T20:39:18.581Z,73.51
2023-02-01T20:41:45.942Z,72.47
2023-02-01T20:44:14.355Z,72.04
2023-02-01T20:49:58.839Z,71.97
2023-02-01T20:52:26.511Z,72.44
2023-02-01T20:54:54.049Z,71.09
2023-02-01T20:57:22.054Z,71.77
2023-02-01T20:59:49.543Z,70.27
2023-02-01T21:02:17.478Z,70.50
2023-02-01T21:04:46.258Z,70.54
2023-02-01T21:07:13.739Z,69.86
2023-02-01T21:09:45.655Z,69.52
2023-02-01T21:12:15.729Z,68.77
2023-02-01T21:14:47.508Z,69.48
2023-02-01T21:17:15.431Z,69.12
2023-02-01T21:19:42.788Z,69.38
2023-02-01T21:22:15.662Z,68.82
2023-02-01T21:24:44.109Z,67.97
2023-02-01T21:27:11.779Z,67.85
2023-02-01T21:29:39.863Z,67.14
2023-02-01T21:32:08.473Z,67.36
2023-02-01T21:34:36.772Z,67.17
2023-02-01T21:37:04.375Z,67.54
2023-02-01T21:39:37.643Z,66.76
2023-02-01T21:42:04.723Z,67.58
2023-02-01T21:44:32.078Z,67.64
2023-02-01T21:46:58.807Z,66.75
2023-02-01T21:49:29.230Z,67.59
2023-02-01T21:51:57.660Z,68.93
2023-02-01T21:54:24.504Z,69.50
2023-02-01T21:56:52.408Z,69.94
2023-02-01T21:59:19.641Z,70.23
2023-02-01T22:01:50.068Z,69.63
2023-02-01T22:04:16.927Z,70.18
2023-02-01T22:06:45.641Z,70.02
2023-02-01T22:09:19.626Z,70.14
2023-02-01T22:11:50.872Z,69.38
2023-02-01T22:14:22.035Z,69.97
2023-02-01T22:16:50.104Z,69.80
2023-02-01T22:19:42.663Z,69.76
2023-02-01T22:22:11.072Z,70.91
2023-02-01T22:24:37.821Z,70.69
2023-02-01T22:27:14.274Z,70.63
2023-02-01T22:29:43.163Z,70.21
2023-02-01T22:32:11.672Z,70.33
2023-02-01T22:34:39.542Z,69.84
2023-02-01T22:37:06.268Z,70.73
2023-02-01T22:39:35.805Z,70.15
2023-02-01T22:42:05.995Z,70.96
2023-02-01T22:44:32.786Z,70.32
2023-02-01T22:46:59.620Z,70.73
2023-02-01T22:49:26.376Z,70.35
2023-02-01T22:51:55.052Z,69.99
2023-02-01T22:57:14.639Z,69.73
2023-02-01T22:59:41.452Z,69.54
2023-02-01T23:02:08.206Z,69.75
2023-02-01T23:04:34.983Z,69.95
2023-02-01T23:07:02.140Z,70.19
2023-02-01T23:09:28.973Z,72.70
2023-02-01T23:11:55.891Z,74.86
2023-02-01T23:14:26.639Z,77.16
2023-02-01T23:16:54.096Z,78.63
2023-02-01T23:19:21.669Z,79.34
2023-02-01T23:21:49.381Z,79.72
2023-02-01T23:24:16.161Z,80.63
2023-02-01T23:26:43.109Z,78.76
2023-02-01T23:29:16.767Z,79.11
2023-02-01T23:31:45.701Z,79.92
2023-02-01T23:34:12.477Z,79.35
2023-02-01T23:36:40.613Z,79.04
2023-02-01T23:39:07.345Z,79.34
2023-02-01T23:41:38.234Z,81.17
2023-02-01T23:44:05.217Z,80.77
2023-02-01T23:46:34.795Z,82.98
2023-02-01T23:49:03.117Z,85.16
2023-02-01T23:51:30.254Z,84.50
2023-02-01T23:53:57.418Z,85.37
2023-02-01T23:56:31.409Z,86.34
2023-02-01T23:59:05.999Z,86.29
